30 september 2022

Tijd Code Weer Temp. Zicht Plafond Wind METAR/SPECI
19:20
L
13 °C 0 m - Var 000° 6 kt METAR ETNT 301720Z AUTO ///06KT //// // ////// 13/07 Q1006 ///
18:20
L
14 °C 0 m - Var 000° 7 kt METAR ETNT 301620Z AUTO ///07KT //// // ////// 14/07 Q1007 ///
17:20
L
15 °C 0 m - Var 000° 6 kt METAR ETNT 301520Z AUTO ///06KT //// // ////// 15/08 Q1007 ///
16:20
L
15 °C 0 m - Var 000° 10 kt METAR ETNT 301420Z AUTO ///10KT //// // ////// 15/07 Q1007 ///
15:20
L
15 °C 0 m - Var 000° 8 kt METAR ETNT 301320Z AUTO ///08KT //// // ////// 15/08 Q1007 ///
14:20
L
15 °C 0 m - Var 000° 8 kt METAR ETNT 301220Z AUTO ///08KT //// // ////// 15/09 Q1008 ///
13:20
V
14 °C 10 km+ - 200° 200° 8 kt METAR ETNT 301120Z 20008KT 9999 SCT020 14/09 Q1008 BLACKBLU+
12:20
V
14 °C 10 km+ - 200° 200° 8 kt METAR ETNT 301020Z 20008KT 9999 FEW020 14/09 Q1008 BLACKBLU+
11:20
V
13 °C 10 km+ - 210° 210° 6 kt METAR ETNT 300920Z 21006KT 9999 FEW020 13/09 Q1008 BLACKBLU+
10:20
V
12 °C 10 km+ - 200° 200° 5 kt METAR ETNT 300820Z 20005KT 9999 FEW120 12/09 Q1008 BLACKBLU+
09:20
V
9 °C 10 km+ - 200° 200° 2 kt METAR ETNT 300720Z 20002KT 9999 FEW120 09/08 Q1008 BLACKBLU+
08:20
V
8 °C 10 km+ - Var 000° 0 kt METAR ETNT 300620Z 02KT 9999 FEW060 08/08 Q1008 BLACKBLU+
07:20
V
8 °C 10 km+ 6.000 ft 240° 240° 3 kt METAR ETNT 300520Z 24003KT 9999 BKN060 08/08 Q1007 BLACKBLU
06:20
V
8 °C 10 km+ 6.000 ft 240° 240° 4 kt METAR ETNT 300420Z 24004KT 9999 BKN060 08/08 Q1007 BLACKBLU
05:20
L
9 °C 0 m - Var 000° 2 kt METAR ETNT 300320Z AUTO ///02KT //// // ////// 09/09 Q1006 ///
04:20
L
9 °C 0 m - Var 000° 2 kt METAR ETNT 300220Z AUTO ///02KT //// // ////// 09/09 Q1006 ///
03:20
L
8 °C 0 m - Var 000° 3 kt METAR ETNT 300120Z AUTO ///03KT //// // ////// 08/08 Q1006 ///
02:20
L
8 °C 0 m - Var 000° 1 kt METAR ETNT 300020Z AUTO ///01KT //// // ////// 08/08 Q1006 ///
01:20
L
8 °C 0 m - Var 000° 3 kt METAR ETNT 292320Z AUTO ///03KT //// // ////// 08/08 Q1006 ///
00:20
L
8 °C 0 m - Var 000° 4 kt METAR ETNT 292220Z AUTO ///04KT //// // ////// 08/08 Q1006 ///

29 september 2022

Tijd Code Weer Temp. Zicht Plafond Wind METAR/SPECI
23:20
L
10 °C 0 m - Var 000° 4 kt METAR ETNT 292120Z AUTO ///04KT //// // ////// 10/10 Q1006 ///
22:20
V
10 °C 10 km+ 5.500 ft 250° 250° 1 kt METAR ETNT 292020Z 25001KT 9999 -RA FEW030 BKN055 10/10 Q1005 BLACKBLU
21:20
V
10 °C 10 km+ 6.000 ft 240° 240° 1 kt METAR ETNT 291920Z 24001KT 9999 SCT025 BKN060 10/10 Q1005 BLACKBLU
20:20
V
11 °C 10 km+ 5.000 ft 260° 260° 3 kt METAR ETNT 291820Z 26003KT 9999 -RA FEW022 BKN050 11/10 Q1004 BLACKBLU
19:20
V
11 °C 10 km+ 5.000 ft 270° 270° 2 kt METAR ETNT 291720Z 27002KT 9999 FEW020 BKN050 11/10 Q1004 BLACKBLU
18:20
V
12 °C 10 km+ 8.500 ft 260° 260° 3 kt METAR ETNT 291620Z 26003KT 9999 VCSH FEW020TCU SCT050 BKN085 12/10 Q1003 BLACKBLU
17:20
V
13 °C 10 km+ 5.000 ft 250° 250° 4 kt METAR ETNT 291520Z 25004KT 9999 FEW020 BKN050 BKN150 13/09 Q1003 BLACKBLU
16:20
V
13 °C 10 km+ 6.000 ft 270° 270° 3 kt METAR ETNT 291420Z 27003KT 9999 FEW020 BKN060 13/10 Q1002 BLACKBLU
15:20
V
11 °C 10 km+ 5.000 ft 270° 270° 1 kt METAR ETNT 291320Z 27001KT 9999 FEW020 BKN050 11/10 Q1002 BLACKBLU
14:20
V
11 °C 10 km+ 5.000 ft 270° 270° 5 kt METAR ETNT 291220Z 27005KT 9999 -RA FEW020 BKN050 11/08 Q1002 BLACKBLU
13:20
V
13 °C 10 km+ 12.000 ft 240° 240° 6 kt METAR ETNT 291120Z 24006KT 9999 FEW010 BKN120 13/10 Q1002 BLACKBLU
12:20
V
12 °C 8 km - 240° 240° 6 kt METAR ETNT 291020Z 24006KT 8000 FEW010 SCT120 12/10 Q1001 BLACKBLU+
11:20
V
9 °C 8 km - 240° 240° 4 kt METAR ETNT 290920Z 24004KT 8000 FEW050 SCT120 09/09 Q1001 BLACKBLU+
10:46
I
8 °C 1,8 km - 010° 010° 4 kt METAR ETNT 290846Z 01004KT 1800 BR SCT002 08/08 Q1001 BLACKYLO
10:35
L
8 °C 1,2 km - 010° 010° 3 kt METAR ETNT 290835Z 01003KT 1200 BR FEW210 08/07 Q1001 BLACKAMB
10:20
L
7 °C 600 m - 010° 010° 3 kt METAR ETNT 290820Z 01003KT 0600 FG FEW210 07/07 Q1001 BLACKRED
09:20
L
5 °C 400 m - 010° 010° 2 kt METAR ETNT 290720Z 01002KT 0400 FG FEW210 05/05 Q1000 BLACKRED
08:20
L
4 °C 200 m - 010° 010° 2 kt METAR ETNT 290620Z 01002KT 0200 FG VV000 04/03 Q1000 BLACKRED
07:20
L
3 °C 200 m - 010° 010° 2 kt METAR ETNT 290520Z 01002KT 0200 FG FEW220 03/03 Q1000 BLACKRED
06:20
L
4 °C 300 m - 010° 010° 2 kt METAR ETNT 290420Z 01002KT 0300 FG FEW220 04/03 Q0999 BLACKRED
05:20
L
2 °C 0 m - 010° 010° 2 kt METAR ETNT 290320Z AUTO 01002KT //// // ////// 02/02 Q0999 ///
04:20
L
1 °C 0 m - 010° 010° 1 kt METAR ETNT 290220Z AUTO 01001KT //// // ////// 01/01 Q0999 ///
03:20
L
2 °C 0 m - 010° 010° 1 kt METAR ETNT 290120Z AUTO 01001KT //// // ////// 02/02 Q0999 ///
02:20
L
3 °C 0 m - Var 000° 0 kt METAR ETNT 290020Z AUTO 00000KT //// // ////// 03/02 Q0999 ///
01:20
L
4 °C 0 m - 010° 010° 2 kt METAR ETNT 282320Z AUTO 01002KT //// // ////// 04/04 Q0999 ///
00:20
L
5 °C 0 m - 010° 010° 2 kt METAR ETNT 282220Z AUTO 01002KT //// // ////// 05/05 Q0998 ///

28 september 2022

Tijd Code Weer Temp. Zicht Plafond Wind METAR/SPECI
23:20
L
5 °C 0 m - 010° 010° 2 kt METAR ETNT 282120Z AUTO 01002KT //// // ////// 05/05 Q0998 ///
22:20
V
5 °C 10 km+ - 010° 010° 1 kt METAR ETNT 282020Z 01001KT 9999 MIFG FEW018 SCT180 05/05 Q0998 BLACKBLU+
21:20
V
5 °C 10 km+ - Var 000° 0 kt METAR ETNT 281920Z 00000KT 9999 MIFG FEW018CB SCT210 05/05 Q0998 BLACKBLU+
20:20
V
7 °C 10 km+ - 010° 010° 1 kt METAR ETNT 281820Z 01001KT 9999 MIFG FEW018CB SCT050 07/06 Q0997 BLACKBLU+
19:20
V
11 °C 10 km+ 24.000 ft 010° 010° 1 kt METAR ETNT 281720Z 01001KT 9999 FEW018CB SCT050 BKN240 11/08 Q0997 BLACKBLU+
18:20
V
12 °C 10 km+ 25.000 ft 010° 010° 2 kt METAR ETNT 281620Z 01002KT 9999 FEW019 SCT060 BKN250 12/08 Q0997 BLACKBLU+
17:20
V
12 °C 10 km+ 14.000 ft 010° 010° 3 kt METAR ETNT 281520Z 01003KT 9999 SCT019 SCT041 BKN140 12/08 Q0996 BLACKBLU
Oudere gegevens

Met cookies volgen wij en derde partijen jouw internetgedrag binnen onze site. Als je verdergaat gaan we ervan uit dat je dit goedvindt. Meer info